Latest Coastal Weather Observations for Hobart

IDT60701

Issued at 3:32 pm EST Monday 25 May 2015 (issued every 10 minutes, with the page automatically refreshed every 10 minutes)

About coastal observations | Map of coastal stations | Coastal observations for TAS | Marine services | Other Formats
Station Details ID: 094029 Name: HOBART (ELLERSLIE ROAD) Lat: -42.89 Lon: 147.33 Height: 50.5 m
Data from the previous 72 hours. | See also: Recent months at Hobart
Date/Time
EST
Temp

°C
Wind Pressure Rain
since 9am
mm
Weather Cloud Vis
km
Sea
Height
m
Swell
Dir
 
Speed
knots
Gust
knots
hPa Trend Height
m
Period
s
Dir
25/03:30pm 11.4 NW 7 11 1026.0 - 0.0 - - - - - - -
25/03:00pm 11.3 NNW 9 13 1026.0 - 0.0 - - - - - - -
25/02:30pm 11.8 NNW 9 12 1026.1 - 0.0 - - - - - - -
25/02:00pm 11.8 NW 8 13 1026.2 - 0.0 - - - - - - -
25/01:30pm 11.4 NNW 9 13 1026.5 - 0.0 - - - - - - -
25/01:00pm 11.3 NW 10 14 1026.7 - 0.0 - - - - - - -
25/12:30pm 11.2 NNW 10 14 1026.9 - 0.0 - - - - - - -
25/12:00pm 11.4 NW 11 15 1027.1 - 0.0 - - - - - - -
25/11:30am 11.7 NW 11 15 1027.4 - 0.0 - - - - - - -
25/11:00am 11.0 NW 10 15 1028.0 - 0.0 - - - - - - -
25/10:30am 10.6 NW 11 15 1028.1 - 0.0 - - - - - - -
25/10:00am 9.2 NNW 12 17 1028.1 - 0.0 - - - - - - -
25/09:30am 8.4 NNW 8 12 1028.2 - 0.0 - - - - - - -
25/09:00am 8.4 NNW 7 10 1028.4 - 0.0 - - - - - - -
25/08:30am 6.1 NNW 3 6 1028.6 - 0.0 - - - - - - -
25/08:00am 5.6 NNW 5 8 1028.6 - 0.0 - - - - - - -
25/07:30am 5.3 NW 6 9 1028.6 - 0.0 - - - - - - -
25/07:00am 5.9 NNW 11 16 1028.4 - 0.0 - - - - - - -
25/06:30am 5.3 NNW 7 9 1028.3 - 0.0 - - - - - - -
25/06:00am 5.3 NW 3 5 1028.1 - 0.0 - - - - - - -
25/05:30am 5.6 NNW 5 7 1028.0 - 0.0 - - - - - - -
25/05:00am 5.5 NW 7 11 1028.2 - 0.0 - - - - - - -
25/04:30am 5.4 NW 9 15 1028.1 - 0.0 - - - - - - -
25/04:00am 5.4 NW 6 10 1028.2 - 0.0 - - - - - - -
25/03:30am 5.4 WNW 6 12 1028.3 - 0.0 - - - - - - -
25/03:00am 5.4 NW 9 15 1028.5 - 0.0 - - - - - - -
25/02:30am 4.9 WNW 5 9 1028.8 - 0.0 - - - - - - -
25/02:00am 4.9 WNW 6 10 1028.7 - 0.0 - - - - - - -
25/01:30am 5.3 NW 7 10 1028.7 - 0.0 - - - - - - -
25/01:00am 5.4 NNW 4 6 1028.8 - 0.0 - - - - - - -
25/12:30am 5.5 NW 6 7 1029.1 - 0.0 - - - - - - -
25/12:00am 5.5 NW 5 7 1029.2 - 0.0 - - - - - - -
 
Date/Time
EST
Temp

°C
Wind Pressure Rain
since 9am
mm
Weather Cloud Vis
km
Sea
Height
m
Swell
Dir
 
Speed
knots
Gust
knots
hPa Trend Height
m
Period
s
Dir
24/11:30pm 5.9 NNW 5 7 1029.2 - 0.0 - - - - - - -
24/11:00pm 5.9 NNW 5 7 1029.2 - 0.0 - - - - - - -
24/10:30pm 5.9 NW 5 8 1029.2 - 0.0 - - - - - - -
24/10:00pm 5.7 NNW 5 7 1029.1 - 0.0 - - - - - - -
24/09:30pm 5.3 NNW 5 6 1029.3 - 0.0 - - - - - - -
24/09:00pm 5.5 W 2 5 1029.2 - 0.0 - - - - - - -
24/08:30pm 5.6 CALM 0 4 1029.1 - 0.0 - - - - - - -
24/08:00pm 5.6 WNW 1 4 1029.2 - 0.0 - - - - - - -
24/07:30pm 5.9 WSW 4 6 1029.3 - 0.0 - - - - - - -
24/07:00pm 6.8 WSW 1 3 1029.1 - 0.0 - - - - - - -
24/06:30pm 7.1 CALM 0 0 1029.0 - 0.0 - - - - - - -
24/06:00pm 7.4 WNW 5 8 1028.8 - 0.0 - - - - - - -
24/05:30pm 7.6 W 6 9 1028.6 - 0.0 - - - - - - -
24/05:00pm 8.0 W 7 9 1028.4 - 0.0 - - - - - - -
24/04:30pm 8.8 W 4 5 1028.4 - 0.0 - - - - - - -
24/04:00pm 9.6 CALM 0 0 1028.5 - 0.0 - - - - - - -
24/03:30pm 9.9 N 3 4 1028.4 - 0.0 - - - - - - -
24/03:00pm 10.2 N 1 4 1028.3 - 0.0 - - - - - - -
24/02:30pm 10.6 NNE 4 6 1028.3 - 0.0 - - - - - - -
24/02:00pm 10.6 NNW 4 5 1028.5 - 0.0 - - - - - - -
24/01:30pm 10.9 N 4 6 1028.6 - 0.0 - - - - - - -
24/01:00pm 10.6 NNW 5 7 1028.9 - 0.0 - - - - - - -
24/12:30pm 10.1 N 6 7 1029.1 - 0.0 - - - - - - -
24/12:00pm 9.2 NNW 7 10 1029.4 - 0.0 - - - - - - -
24/11:30am 8.5 NW 10 14 1029.7 - 0.0 - - - - - - -
24/11:00am 7.6 NNW 10 15 1029.9 - 0.0 - - - - - - -
24/10:30am 7.2 NNW 10 15 1030.2 - 0.0 - - - - - - -
24/10:00am 6.1 NNW 9 12 1030.1 - 0.0 - - - - - - -
24/09:30am 6.3 NNW 7 11 1030.3 - 0.0 - - - - - - -
24/09:00am 5.2 NNW 7 9 1030.4 - 0.0 - - - - - - -
24/08:30am 3.1 NW 6 8 1030.3 - 0.0 - - - - - - -
24/08:00am 3.0 WNW 5 6 1030.2 - 0.0 - - - - - - -
24/07:30am 2.6 W 5 6 1029.9 - 0.0 - - - - - - -
24/07:00am 2.7 NNW 3 6 1029.7 - 0.0 - - - - - - -
24/06:30am 3.0 W 6 8 1029.7 - 0.0 - - - - - - -
24/06:00am 3.3 CALM 0 0 1029.4 - 0.0 - - - - - - -
24/05:30am 3.3 W 5 7 1029.0 - 0.0 - - - - - - -
24/05:00am 3.5 W 5 7 1028.9 - 0.0 - - - - - - -
24/04:30am 3.5 WNW 6 9 1028.8 - 0.0 - - - - - - -
24/04:00am 3.7 W 5 7 1028.7 - 0.0 - - - - - - -
24/03:30am 3.7 WNW 6 8 1028.6 - 0.0 - - - - - - -
24/03:00am 3.9 WNW 5 6 1028.7 - 0.0 - - - - - - -
24/02:30am 4.2 WNW 5 7 1028.8 - 0.0 - - - - - - -
24/02:00am 4.4 W 3 4 1028.9 - 0.0 - - - - - - -
24/01:30am 4.7 W 3 4 1028.8 - 0.0 - - - - - - -
24/01:00am 4.8 W 5 7 1028.9 - 0.0 - - - - - - -
24/12:30am 4.7 W 4 5 1028.8 - 0.0 - - - - - - -
24/12:00am 5.0 W 5 7 1028.9 - 0.0 - - - - - - -
 
Date/Time
EST
Temp

°C
Wind Pressure Rain
since 9am
mm
Weather Cloud Vis
km
Sea
Height
m
Swell
Dir
 
Speed
knots
Gust
knots
hPa Trend Height
m
Period
s
Dir
23/11:30pm 5.0 W 5 7 1028.9 - 0.0 - - - - - - -
23/11:00pm 5.3 WSW 5 6 1028.7 - 0.0 - - - - - - -
23/10:30pm 5.6 WSW 7 9 1028.7 - 0.0 - - - - - - -
23/10:00pm 5.8 WSW 6 8 1028.8 - 0.0 - - - - - - -
23/09:30pm 5.7 WSW 5 8 1029.0 - 0.0 - - - - - - -
23/09:00pm 6.2 E 1 3 1029.0 - 0.0 - - - - - - -
23/08:30pm 6.4 WSW 4 6 1029.0 - 0.0 - - - - - - -
23/08:00pm 6.9 W 7 11 1029.0 - 0.0 - - - - - - -
23/07:30pm 7.0 W 4 7 1028.8 - 0.0 - - - - - - -
23/07:00pm 8.0 WSW 5 7 1028.7 - 0.0 - - - - - - -
23/06:30pm 8.8 ENE 2 4 1028.5 - 0.0 - - - - - - -
23/06:00pm 8.6 SSW 6 8 1028.4 - 0.0 - - - - - - -
23/05:30pm 9.2 NNW 1 4 1028.2 - 0.0 - - - - - - -
23/05:00pm 10.1 S 4 5 1027.9 - 0.0 - - - - - - -
23/04:30pm 11.2 S 5 10 1027.9 - 0.0 - - - - - - -
23/04:00pm 11.7 NNE 2 6 1027.7 - 0.0 - - - - - - -
23/03:30pm 12.2 S 6 9 1027.6 - 0.0 - - - - - - -
23/03:00pm 12.7 SW 9 17 1027.6 - 0.0 - - - - - - -
23/02:30pm 13.1 SW 7 14 1027.5 - 0.0 - - - - - - -
23/02:00pm 13.3 SE 5 12 1027.5 - 0.0 - - - - - - -
23/01:30pm 13.4 SSW 7 14 1027.4 - 0.0 - - - - - - -
23/01:00pm 13.3 SW 10 15 1027.7 - 0.0 - - - - - - -
23/12:30pm 13.0 SW 13 26 1027.7 - 0.0 - - - - - - -
23/12:24pm 13.0 SW 15 26 1027.8 - 0.0 - - - - - - -
23/12:00pm 13.2 SW 13 23 1028.0 - 0.0 - - - - - - -
23/11:56am 13.5 SW 15 23 1028.0 - 0.0 - - - - - - -
23/11:30am 13.1 SSW 6 10 1028.1 - 0.0 - - - - - - -
23/11:00am 12.5 E 5 6 1028.4 - 0.0 - - - - - - -
23/10:30am 12.5 NE 5 6 1028.4 - 0.0 - - - - - - -
23/10:00am 10.6 SE 4 5 1028.5 - 0.0 - - - - - - -
23/09:30am 10.2 ENE 4 6 1028.4 - 0.0 - - - - - - -
23/09:00am 8.3 WNW 2 4 1028.3 - 0.0 - - - - - - -
23/08:30am 6.9 W 4 7 1028.3 - 0.0 - - - - - - -
23/08:00am 5.4 WSW 5 8 1028.1 - 0.0 - - - - - - -
23/07:30am 5.2 WSW 4 8 1027.9 - 0.0 - - - - - - -
23/07:00am 5.0 WSW 6 9 1027.9 - 0.0 - - - - - - -
23/06:30am 5.2 WSW 6 11 1027.7 - 0.0 - - - - - - -
23/06:00am 5.2 WSW 7 13 1027.4 - 0.0 - - - - - - -
23/05:30am 5.2 WSW 7 11 1027.3 - 0.0 - - - - - - -
23/05:00am 5.0 WSW 6 10 1027.1 - 0.0 - - - - - - -
23/04:30am 4.9 WSW 5 7 1026.9 - 0.0 - - - - - - -
23/04:00am 5.0 WSW 5 7 1026.9 - 0.0 - - - - - - -
23/03:30am 4.9 WSW 7 9 1027.1 - 0.0 - - - - - - -
23/03:00am 5.2 SW 5 7 1027.2 - 0.0 - - - - - - -
23/02:30am 5.2 WSW 7 12 1027.5 - 0.0 - - - - - - -
23/02:00am 5.3 WSW 6 8 1027.5 - 0.0 - - - - - - -
23/01:30am 5.2 SW 6 8 1027.4 - 0.0 - - - - - - -
23/01:00am 5.7 WSW 6 8 1027.5 - 0.0 - - - - - - -
23/12:30am 5.4 WSW 6 10 1027.6 - 0.0 - - - - - - -
23/12:00am 6.1 WSW 5 8 1027.6 - 0.0 - - - - - - -
 
Date/Time
EST
Temp

°C
Wind Pressure Rain
since 9am
mm
Weather Cloud Vis
km
Sea
Height
m
Swell
Dir
 
Speed
knots
Gust
knots
hPa Trend Height
m
Period
s
Dir
22/11:30pm 6.1 SW 4 9 1027.8 - 0.0 - - - - - - -
22/11:00pm 6.2 WSW 1 8 1027.7 - 0.0 - - - - - - -
22/10:30pm 6.3 SW 4 8 1027.8 - 0.0 - - - - - - -
22/10:00pm 6.8 N 2 7 1027.7 - 0.0 - - - - - - -
22/09:30pm 6.7 SW 6 8 1027.7 - 0.0 - - - - - - -
22/09:00pm 7.0 SW 7 10 1027.5 - 0.0 - - - - - - -
22/08:30pm 7.1 WSW 5 7 1027.4 - 0.0 - - - - - - -
22/08:00pm 7.4 W 3 7 1027.3 - 0.0 - - - - - - -
22/07:30pm 8.5 SE 3 5 1027.1 - 0.0 - - - - - - -
22/07:00pm 9.0 NNE 4 7 1026.9 - 0.0 - - - - - - -
22/06:30pm 9.8 ENE 5 8 1026.7 - 0.0 - - - - - - -
22/06:00pm 10.0 WSW 5 9 1026.7 - 0.0 - - - - - - -
22/05:30pm 10.2 WSW 4 5 1026.4 - 0.0 - - - - - - -
22/05:00pm 10.6 WNW 5 8 1026.2 - 0.0 - - - - - - -
22/04:30pm 11.6 ENE 7 9 1025.9 - 0.0 - - - - - - -
22/04:00pm 12.0 NE 5 9 1026.0 - 0.0 - - - - - - -

Other Formats:

Comma delimited format used in spreadsheet applications
http://www.bom.gov.au/fwo/IDT60701/IDT60701.94970.axf

JavaScript Object Notation format (JSON) in row-major order
http://www.bom.gov.au/fwo/IDT60701/IDT60701.94970.json